sensor_id;sensor_type;location;lat;lon;timestamp;P1;durP1;ratioP1;P2;durP2;ratioP2
55069;SDS011;40967;52.070;8.596;2022-07-23T00:01:05;1.30;;;0.87;;
55069;SDS011;40967;52.070;8.596;2022-07-23T00:03:31;1.20;;;0.60;;
55069;SDS011;40967;52.070;8.596;2022-07-23T00:05:56;1.00;;;0.70;;
55069;SDS011;40967;52.070;8.596;2022-07-23T00:08:22;1.23;;;0.70;;
55069;SDS011;40967;52.070;8.596;2022-07-23T00:10:47;1.37;;;0.80;;
55069;SDS011;40967;52.070;8.596;2022-07-23T00:13:12;1.07;;;0.70;;
55069;SDS011;40967;52.070;8.596;2022-07-23T00:15:38;1.00;;;0.70;;
55069;SDS011;40967;52.070;8.596;2022-07-23T00:18:03;1.40;;;0.80;;
55069;SDS011;40967;52.070;8.596;2022-07-23T00:20:29;1.10;;;0.80;;
55069;SDS011;40967;52.070;8.596;2022-07-23T00:22:54;1.40;;;0.73;;
55069;SDS011;40967;52.070;8.596;2022-07-23T00:25:24;0.85;;;0.63;;
55069;SDS011;40967;52.070;8.596;2022-07-23T00:27:51;1.10;;;0.70;;
55069;SDS011;40967;52.070;8.596;2022-07-23T00:30:16;0.83;;;0.60;;
55069;SDS011;40967;52.070;8.596;2022-07-23T00:32:45;1.40;;;0.80;;
55069;SDS011;40967;52.070;8.596;2022-07-23T00:35:11;1.10;;;0.80;;
55069;SDS011;40967;52.070;8.596;2022-07-23T00:37:36;1.10;;;0.70;;
55069;SDS011;40967;52.070;8.596;2022-07-23T00:40:02;1.30;;;0.80;;
55069;SDS011;40967;52.070;8.596;2022-07-23T00:42:27;0.98;;;0.73;;
55069;SDS011;40967;52.070;8.596;2022-07-23T00:44:53;1.17;;;0.70;;
55069;SDS011;40967;52.070;8.596;2022-07-23T00:47:18;0.90;;;0.60;;
55069;SDS011;40967;52.070;8.596;2022-07-23T00:49:43;0.93;;;0.60;;
55069;SDS011;40967;52.070;8.596;2022-07-23T00:52:09;0.83;;;0.70;;
55069;SDS011;40967;52.070;8.596;2022-07-23T00:54:34;1.27;;;0.70;;
55069;SDS011;40967;52.070;8.596;2022-07-23T00:57:00;1.25;;;0.90;;
55069;SDS011;40967;52.070;8.596;2022-07-23T00:59:25;0.93;;;0.70;;
55069;SDS011;40967;52.070;8.596;2022-07-23T01:01:51;0.90;;;0.63;;
55069;SDS011;40967;52.070;8.596;2022-07-23T01:04:16;1.20;;;0.77;;
55069;SDS011;40967;52.070;8.596;2022-07-23T01:06:41;1.20;;;0.90;;
55069;SDS011;40967;52.070;8.596;2022-07-23T01:09:09;1.95;;;1.30;;
55069;SDS011;40967;52.070;8.596;2022-07-23T01:11:35;1.37;;;0.90;;
55069;SDS011;40967;52.070;8.596;2022-07-23T01:14:08;1.83;;;1.20;;
55069;SDS011;40967;52.070;8.596;2022-07-23T01:16:41;2.83;;;1.40;;
55069;SDS011;40967;52.070;8.596;2022-07-23T01:19:08;2.40;;;1.40;;
55069;SDS011;40967;52.070;8.596;2022-07-23T01:21:35;2.28;;;1.30;;
55069;SDS011;40967;52.070;8.596;2022-07-23T01:24:02;2.17;;;1.33;;
55069;SDS011;40967;52.070;8.596;2022-07-23T01:26:27;1.83;;;1.30;;
55069;SDS011;40967;52.070;8.596;2022-07-23T01:28:53;1.57;;;1.07;;
55069;SDS011;40967;52.070;8.596;2022-07-23T01:31:18;1.63;;;1.10;;
55069;SDS011;40967;52.070;8.596;2022-07-23T01:33:44;1.52;;;0.98;;
55069;SDS011;40967;52.070;8.596;2022-07-23T01:36:09;1.30;;;0.90;;
55069;SDS011;40967;52.070;8.596;2022-07-23T01:38:35;1.37;;;0.90;;
55069;SDS011;40967;52.070;8.596;2022-07-23T01:41:00;1.20;;;0.80;;
55069;SDS011;40967;52.070;8.596;2022-07-23T01:43:26;1.33;;;0.90;;
55069;SDS011;40967;52.070;8.596;2022-07-23T01:45:51;1.30;;;1.00;;
55069;SDS011;40967;52.070;8.596;2022-07-23T01:48:16;2.00;;;1.20;;
55069;SDS011;40967;52.070;8.596;2022-07-23T01:50:42;1.60;;;1.10;;
55069;SDS011;40967;52.070;8.596;2022-07-23T01:53:07;1.73;;;1.10;;
55069;SDS011;40967;52.070;8.596;2022-07-23T01:55:32;1.53;;;1.00;;
55069;SDS011;40967;52.070;8.596;2022-07-23T01:57:58;1.50;;;1.00;;
55069;SDS011;40967;52.070;8.596;2022-07-23T02:00:24;1.50;;;0.93;;
55069;SDS011;40967;52.070;8.596;2022-07-23T02:02:49;1.73;;;1.20;;
55069;SDS011;40967;52.070;8.596;2022-07-23T02:05:14;1.88;;;1.23;;
55069;SDS011;40967;52.070;8.596;2022-07-23T02:07:40;1.80;;;1.20;;
55069;SDS011;40967;52.070;8.596;2022-07-23T02:10:05;1.93;;;1.30;;
55069;SDS011;40967;52.070;8.596;2022-07-23T02:12:31;2.10;;;1.25;;
55069;SDS011;40967;52.070;8.596;2022-07-23T02:14:57;1.95;;;1.27;;
55069;SDS011;40967;52.070;8.596;2022-07-23T02:17:22;1.90;;;1.17;;
55069;SDS011;40967;52.070;8.596;2022-07-23T02:19:47;2.00;;;1.17;;
55069;SDS011;40967;52.070;8.596;2022-07-23T02:22:12;1.90;;;1.20;;
55069;SDS011;40967;52.070;8.596;2022-07-23T02:24:38;2.00;;;1.10;;
55069;SDS011;40967;52.070;8.596;2022-07-23T02:27:03;2.20;;;1.30;;
55069;SDS011;40967;52.070;8.596;2022-07-23T02:29:29;1.80;;;1.07;;
55069;SDS011;40967;52.070;8.596;2022-07-23T02:31:54;1.80;;;1.10;;
55069;SDS011;40967;52.070;8.596;2022-07-23T02:34:19;1.63;;;1.00;;
55069;SDS011;40967;52.070;8.596;2022-07-23T02:36:45;1.20;;;0.90;;
55069;SDS011;40967;52.070;8.596;2022-07-23T02:39:10;1.17;;;0.87;;
55069;SDS011;40967;52.070;8.596;2022-07-23T02:41:36;1.57;;;0.90;;
55069;SDS011;40967;52.070;8.596;2022-07-23T02:44:01;1.50;;;0.93;;
55069;SDS011;40967;52.070;8.596;2022-07-23T02:46:27;1.55;;;1.00;;
55069;SDS011;40967;52.070;8.596;2022-07-23T02:48:52;1.90;;;1.20;;
55069;SDS011;40967;52.070;8.596;2022-07-23T02:51:17;1.83;;;1.17;;
55069;SDS011;40967;52.070;8.596;2022-07-23T02:53:43;2.00;;;1.20;;
55069;SDS011;40967;52.070;8.596;2022-07-23T02:56:08;2.30;;;1.30;;
55069;SDS011;40967;52.070;8.596;2022-07-23T02:58:34;1.50;;;1.00;;
55069;SDS011;40967;52.070;8.596;2022-07-23T03:00:59;2.03;;;1.30;;
55069;SDS011;40967;52.070;8.596;2022-07-23T03:03:25;2.63;;;1.73;;
55069;SDS011;40967;52.070;8.596;2022-07-23T03:05:50;2.13;;;1.30;;
55069;SDS011;40967;52.070;8.596;2022-07-23T03:08:15;2.67;;;1.60;;
55069;SDS011;40967;52.070;8.596;2022-07-23T03:10:41;2.03;;;1.27;;
55069;SDS011;40967;52.070;8.596;2022-07-23T03:13:06;2.50;;;1.40;;
55069;SDS011;40967;52.070;8.596;2022-07-23T03:15:31;2.70;;;1.60;;
55069;SDS011;40967;52.070;8.596;2022-07-23T03:17:57;2.27;;;1.50;;
55069;SDS011;40967;52.070;8.596;2022-07-23T03:20:22;2.53;;;1.40;;
55069;SDS011;40967;52.070;8.596;2022-07-23T03:22:47;2.47;;;1.20;;
55069;SDS011;40967;52.070;8.596;2022-07-23T03:25:13;2.10;;;1.30;;
55069;SDS011;40967;52.070;8.596;2022-07-23T03:27:38;2.33;;;1.40;;
55069;SDS011;40967;52.070;8.596;2022-07-23T03:30:04;2.07;;;1.30;;
55069;SDS011;40967;52.070;8.596;2022-07-23T03:32:30;1.83;;;1.30;;
55069;SDS011;40967;52.070;8.596;2022-07-23T03:34:56;1.80;;;1.20;;
55069;SDS011;40967;52.070;8.596;2022-07-23T03:37:21;2.23;;;1.30;;
55069;SDS011;40967;52.070;8.596;2022-07-23T03:39:47;1.97;;;1.20;;
55069;SDS011;40967;52.070;8.596;2022-07-23T03:42:13;1.63;;;1.15;;
55069;SDS011;40967;52.070;8.596;2022-07-23T03:44:38;2.00;;;1.13;;
55069;SDS011;40967;52.070;8.596;2022-07-23T03:47:04;2.43;;;1.53;;
55069;SDS011;40967;52.070;8.596;2022-07-23T03:49:30;2.00;;;1.20;;
55069;SDS011;40967;52.070;8.596;2022-07-23T03:51:56;2.10;;;1.30;;
55069;SDS011;40967;52.070;8.596;2022-07-23T03:54:21;2.03;;;1.20;;
55069;SDS011;40967;52.070;8.596;2022-07-23T03:56:46;1.87;;;1.20;;
55069;SDS011;40967;52.070;8.596;2022-07-23T03:59:12;1.53;;;1.00;;
55069;SDS011;40967;52.070;8.596;2022-07-23T04:01:37;1.67;;;1.07;;
55069;SDS011;40967;52.070;8.596;2022-07-23T04:04:03;1.70;;;1.10;;
55069;SDS011;40967;52.070;8.596;2022-07-23T04:06:28;2.03;;;1.17;;
55069;SDS011;40967;52.070;8.596;2022-07-23T04:08:54;1.42;;;1.02;;
55069;SDS011;40967;52.070;8.596;2022-07-23T04:11:19;1.85;;;1.02;;
55069;SDS011;40967;52.070;8.596;2022-07-23T04:13:45;2.10;;;1.20;;
55069;SDS011;40967;52.070;8.596;2022-07-23T04:16:10;1.73;;;1.03;;
55069;SDS011;40967;52.070;8.596;2022-07-23T04:18:35;2.07;;;1.03;;
55069;SDS011;40967;52.070;8.596;2022-07-23T04:21:01;1.37;;;0.93;;
55069;SDS011;40967;52.070;8.596;2022-07-23T04:23:26;1.30;;;0.90;;
55069;SDS011;40967;52.070;8.596;2022-07-23T04:25:52;1.67;;;1.00;;
55069;SDS011;40967;52.070;8.596;2022-07-23T04:28:17;1.42;;;0.90;;
55069;SDS011;40967;52.070;8.596;2022-07-23T04:30:42;1.92;;;1.10;;
55069;SDS011;40967;52.070;8.596;2022-07-23T04:33:08;1.58;;;0.90;;
55069;SDS011;40967;52.070;8.596;2022-07-23T04:35:34;1.67;;;1.10;;
55069;SDS011;40967;52.070;8.596;2022-07-23T04:37:59;1.30;;;0.90;;
55069;SDS011;40967;52.070;8.596;2022-07-23T04:40:25;1.60;;;1.07;;
55069;SDS011;40967;52.070;8.596;2022-07-23T04:42:51;1.70;;;1.10;;
55069;SDS011;40967;52.070;8.596;2022-07-23T04:45:16;1.93;;;1.23;;
55069;SDS011;40967;52.070;8.596;2022-07-23T04:47:42;1.47;;;0.97;;
55069;SDS011;40967;52.070;8.596;2022-07-23T04:50:07;1.17;;;0.90;;
55069;SDS011;40967;52.070;8.596;2022-07-23T04:52:33;0.93;;;0.70;;
55069;SDS011;40967;52.070;8.596;2022-07-23T04:54:58;0.98;;;0.70;;
55069;SDS011;40967;52.070;8.596;2022-07-23T04:57:24;1.10;;;0.70;;
55069;SDS011;40967;52.070;8.596;2022-07-23T04:59:49;1.20;;;0.75;;
55069;SDS011;40967;52.070;8.596;2022-07-23T05:02:14;1.45;;;0.80;;
55069;SDS011;40967;52.070;8.596;2022-07-23T05:04:40;0.90;;;0.70;;
55069;SDS011;40967;52.070;8.596;2022-07-23T05:07:05;1.20;;;0.80;;
55069;SDS011;40967;52.070;8.596;2022-07-23T05:09:30;1.20;;;0.80;;
55069;SDS011;40967;52.070;8.596;2022-07-23T05:11:57;1.10;;;0.80;;
55069;SDS011;40967;52.070;8.596;2022-07-23T05:14:22;1.40;;;1.00;;
55069;SDS011;40967;52.070;8.596;2022-07-23T05:16:47;1.37;;;0.87;;
55069;SDS011;40967;52.070;8.596;2022-07-23T05:19:13;1.43;;;0.80;;
55069;SDS011;40967;52.070;8.596;2022-07-23T05:21:38;1.13;;;0.70;;
55069;SDS011;40967;52.070;8.596;2022-07-23T05:24:04;1.40;;;0.80;;
55069;SDS011;40967;52.070;8.596;2022-07-23T05:26:30;1.10;;;0.73;;
55069;SDS011;40967;52.070;8.596;2022-07-23T05:28:55;1.00;;;0.80;;
55069;SDS011;40967;52.070;8.596;2022-07-23T05:31:20;1.03;;;0.70;;
55069;SDS011;40967;52.070;8.596;2022-07-23T05:33:46;0.80;;;0.60;;
55069;SDS011;40967;52.070;8.596;2022-07-23T05:36:11;1.20;;;0.80;;
55069;SDS011;40967;52.070;8.596;2022-07-23T05:38:36;1.47;;;1.00;;
55069;SDS011;40967;52.070;8.596;2022-07-23T05:41:02;2.13;;;1.10;;
55069;SDS011;40967;52.070;8.596;2022-07-23T05:43:28;1.70;;;1.10;;
55069;SDS011;40967;52.070;8.596;2022-07-23T05:45:54;1.67;;;1.10;;
55069;SDS011;40967;52.070;8.596;2022-07-23T05:48:20;2.65;;;1.35;;
55069;SDS011;40967;52.070;8.596;2022-07-23T05:50:46;2.40;;;1.20;;
55069;SDS011;40967;52.070;8.596;2022-07-23T05:53:12;1.67;;;1.08;;
55069;SDS011;40967;52.070;8.596;2022-07-23T05:55:37;1.40;;;0.90;;
55069;SDS011;40967;52.070;8.596;2022-07-23T05:58:03;1.10;;;0.80;;
55069;SDS011;40967;52.070;8.596;2022-07-23T06:00:28;1.50;;;1.00;;
55069;SDS011;40967;52.070;8.596;2022-07-23T06:02:54;1.50;;;1.00;;
55069;SDS011;40967;52.070;8.596;2022-07-23T06:05:19;1.80;;;1.20;;
55069;SDS011;40967;52.070;8.596;2022-07-23T06:07:45;2.10;;;1.30;;
55069;SDS011;40967;52.070;8.596;2022-07-23T06:10:11;2.70;;;1.37;;
55069;SDS011;40967;52.070;8.596;2022-07-23T06:12:36;2.75;;;1.60;;
55069;SDS011;40967;52.070;8.596;2022-07-23T06:15:02;1.73;;;1.10;;
55069;SDS011;40967;52.070;8.596;2022-07-23T06:17:27;2.00;;;1.13;;
55069;SDS011;40967;52.070;8.596;2022-07-23T06:19:53;2.07;;;1.00;;
55069;SDS011;40967;52.070;8.596;2022-07-23T06:22:19;1.15;;;0.90;;
55069;SDS011;40967;52.070;8.596;2022-07-23T06:24:45;1.13;;;0.82;;
55069;SDS011;40967;52.070;8.596;2022-07-23T06:27:10;1.80;;;1.17;;
55069;SDS011;40967;52.070;8.596;2022-07-23T06:29:36;1.50;;;0.90;;
55069;SDS011;40967;52.070;8.596;2022-07-23T06:32:01;2.77;;;1.57;;
55069;SDS011;40967;52.070;8.596;2022-07-23T06:34:27;3.53;;;2.17;;
55069;SDS011;40967;52.070;8.596;2022-07-23T06:36:52;2.70;;;1.40;;
55069;SDS011;40967;52.070;8.596;2022-07-23T06:39:17;3.53;;;1.67;;
55069;SDS011;40967;52.070;8.596;2022-07-23T06:41:43;2.93;;;1.40;;
55069;SDS011;40967;52.070;8.596;2022-07-23T06:44:08;3.27;;;1.77;;
55069;SDS011;40967;52.070;8.596;2022-07-23T06:46:33;3.87;;;2.03;;
55069;SDS011;40967;52.070;8.596;2022-07-23T06:48:59;4.00;;;2.17;;
55069;SDS011;40967;52.070;8.596;2022-07-23T06:51:24;2.80;;;1.70;;
55069;SDS011;40967;52.070;8.596;2022-07-23T06:53:49;2.30;;;1.30;;
55069;SDS011;40967;52.070;8.596;2022-07-23T06:56:15;3.37;;;1.70;;
55069;SDS011;40967;52.070;8.596;2022-07-23T06:58:40;3.93;;;2.00;;
55069;SDS011;40967;52.070;8.596;2022-07-23T07:01:06;2.70;;;1.70;;
55069;SDS011;40967;52.070;8.596;2022-07-23T07:03:31;2.30;;;1.47;;
55069;SDS011;40967;52.070;8.596;2022-07-23T07:05:56;1.97;;;1.20;;
55069;SDS011;40967;52.070;8.596;2022-07-23T07:08:22;2.28;;;1.30;;
55069;SDS011;40967;52.070;8.596;2022-07-23T07:10:48;2.40;;;1.30;;
55069;SDS011;40967;52.070;8.596;2022-07-23T07:13:13;2.00;;;1.23;;
55069;SDS011;40967;52.070;8.596;2022-07-23T07:15:39;3.33;;;1.73;;
55069;SDS011;40967;52.070;8.596;2022-07-23T07:18:04;2.50;;;1.35;;
55069;SDS011;40967;52.070;8.596;2022-07-23T07:20:30;2.72;;;1.63;;
55069;SDS011;40967;52.070;8.596;2022-07-23T07:22:55;2.60;;;1.30;;
55069;SDS011;40967;52.070;8.596;2022-07-23T07:25:20;1.80;;;1.10;;
55069;SDS011;40967;52.070;8.596;2022-07-23T07:27:46;1.92;;;1.17;;
55069;SDS011;40967;52.070;8.596;2022-07-23T07:30:11;3.13;;;1.57;;
55069;SDS011;40967;52.070;8.596;2022-07-23T07:32:37;3.05;;;1.50;;
55069;SDS011;40967;52.070;8.596;2022-07-23T07:35:03;2.03;;;1.23;;
55069;SDS011;40967;52.070;8.596;2022-07-23T07:37:30;3.20;;;1.67;;
55069;SDS011;40967;52.070;8.596;2022-07-23T07:39:55;3.00;;;1.67;;
55069;SDS011;40967;52.070;8.596;2022-07-23T07:42:20;2.20;;;1.40;;
55069;SDS011;40967;52.070;8.596;2022-07-23T07:44:46;2.93;;;1.17;;
55069;SDS011;40967;52.070;8.596;2022-07-23T07:47:11;1.97;;;1.10;;
55069;SDS011;40967;52.070;8.596;2022-07-23T07:49:36;1.60;;;0.90;;
55069;SDS011;40967;52.070;8.596;2022-07-23T07:52:02;1.50;;;0.80;;
55069;SDS011;40967;52.070;8.596;2022-07-23T07:54:28;2.28;;;1.00;;
55069;SDS011;40967;52.070;8.596;2022-07-23T07:56:53;1.42;;;0.70;;
55069;SDS011;40967;52.070;8.596;2022-07-23T07:59:19;2.47;;;1.30;;
55069;SDS011;40967;52.070;8.596;2022-07-23T08:01:44;2.87;;;1.30;;
55069;SDS011;40967;52.070;8.596;2022-07-23T08:04:09;2.40;;;1.60;;
55069;SDS011;40967;52.070;8.596;2022-07-23T08:06:35;2.30;;;1.30;;
55069;SDS011;40967;52.070;8.596;2022-07-23T08:09:00;1.97;;;1.13;;
55069;SDS011;40967;52.070;8.596;2022-07-23T08:11:25;2.70;;;1.30;;
55069;SDS011;40967;52.070;8.596;2022-07-23T08:13:51;3.60;;;2.00;;
55069;SDS011;40967;52.070;8.596;2022-07-23T08:16:16;2.60;;;1.37;;
55069;SDS011;40967;52.070;8.596;2022-07-23T08:18:42;2.40;;;1.10;;
55069;SDS011;40967;52.070;8.596;2022-07-23T08:21:07;1.70;;;1.07;;
55069;SDS011;40967;52.070;8.596;2022-07-23T08:23:32;1.27;;;0.70;;
55069;SDS011;40967;52.070;8.596;2022-07-23T08:25:58;1.50;;;0.70;;
55069;SDS011;40967;52.070;8.596;2022-07-23T08:28:24;0.85;;;0.50;;
55069;SDS011;40967;52.070;8.596;2022-07-23T08:30:50;1.08;;;0.80;;
55069;SDS011;40967;52.070;8.596;2022-07-23T08:33:16;1.13;;;0.77;;
55069;SDS011;40967;52.070;8.596;2022-07-23T08:35:47;1.10;;;0.80;;
55069;SDS011;40967;52.070;8.596;2022-07-23T08:38:15;3.63;;;2.00;;
55069;SDS011;40967;52.070;8.596;2022-07-23T08:40:43;2.50;;;1.10;;
55069;SDS011;40967;52.070;8.596;2022-07-23T08:43:13;2.83;;;1.50;;
55069;SDS011;40967;52.070;8.596;2022-07-23T08:45:42;1.60;;;0.93;;
55069;SDS011;40967;52.070;8.596;2022-07-23T08:48:13;1.50;;;0.85;;
55069;SDS011;40967;52.070;8.596;2022-07-23T08:50:44;1.45;;;0.73;;
55069;SDS011;40967;52.070;8.596;2022-07-23T08:53:12;1.88;;;1.10;;
55069;SDS011;40967;52.070;8.596;2022-07-23T08:55:38;1.17;;;0.70;;
55069;SDS011;40967;52.070;8.596;2022-07-23T08:58:04;1.13;;;0.80;;
55069;SDS011;40967;52.070;8.596;2022-07-23T09:00:31;1.50;;;0.70;;
55069;SDS011;40967;52.070;8.596;2022-07-23T09:02:58;0.70;;;0.50;;
55069;SDS011;40967;52.070;8.596;2022-07-23T09:05:23;0.80;;;0.50;;
55069;SDS011;40967;52.070;8.596;2022-07-23T09:08:05;4.10;;;1.70;;
55069;SDS011;40967;52.070;8.596;2022-07-23T09:10:45;1.42;;;0.90;;
55069;SDS011;40967;52.070;8.596;2022-07-23T09:16:00;1.40;;;1.00;;
55069;SDS011;40967;52.070;8.596;2022-07-23T09:18:38;1.38;;;0.90;;
55069;SDS011;40967;52.070;8.596;2022-07-23T09:21:12;0.90;;;0.60;;
55069;SDS011;40967;52.070;8.596;2022-07-23T09:23:48;1.20;;;0.73;;
55069;SDS011;40967;52.070;8.596;2022-07-23T09:26:18;1.52;;;0.73;;
55069;SDS011;40967;52.070;8.596;2022-07-23T09:31:24;2.85;;;0.93;;
55069;SDS011;40967;52.070;8.596;2022-07-23T09:34:06;2.35;;;1.20;;
55069;SDS011;40967;52.070;8.596;2022-07-23T09:36:32;1.80;;;1.00;;
55069;SDS011;40967;52.070;8.596;2022-07-23T09:38:58;2.10;;;1.00;;
55069;SDS011;40967;52.070;8.596;2022-07-23T09:41:23;2.33;;;0.90;;
55069;SDS011;40967;52.070;8.596;2022-07-23T09:43:54;2.00;;;1.20;;
55069;SDS011;40967;52.070;8.596;2022-07-23T09:46:24;1.73;;;1.17;;
55069;SDS011;40967;52.070;8.596;2022-07-23T09:48:53;1.73;;;1.20;;
55069;SDS011;40967;52.070;8.596;2022-07-23T09:51:21;2.45;;;1.30;;
55069;SDS011;40967;52.070;8.596;2022-07-23T09:53:53;2.30;;;1.30;;
55069;SDS011;40967;52.070;8.596;2022-07-23T09:56:18;2.70;;;1.40;;
55069;SDS011;40967;52.070;8.596;2022-07-23T09:58:45;1.88;;;1.08;;
55069;SDS011;40967;52.070;8.596;2022-07-23T10:01:15;2.10;;;1.30;;
55069;SDS011;40967;52.070;8.596;2022-07-23T10:03:41;2.05;;;1.05;;
55069;SDS011;40967;52.070;8.596;2022-07-23T10:06:08;1.83;;;0.88;;
55069;SDS011;40967;52.070;8.596;2022-07-23T10:08:35;1.83;;;1.10;;
55069;SDS011;40967;52.070;8.596;2022-07-23T10:11:05;2.33;;;1.40;;
55069;SDS011;40967;52.070;8.596;2022-07-23T10:13:31;1.65;;;1.00;;
55069;SDS011;40967;52.070;8.596;2022-07-23T10:16:15;2.40;;;1.17;;
55069;SDS011;40967;52.070;8.596;2022-07-23T10:18:40;1.50;;;0.88;;
55069;SDS011;40967;52.070;8.596;2022-07-23T10:21:07;1.37;;;0.90;;
55069;SDS011;40967;52.070;8.596;2022-07-23T10:23:35;1.27;;;0.67;;
55069;SDS011;40967;52.070;8.596;2022-07-23T10:32:08;2.00;;;1.00;;
55069;SDS011;40967;52.070;8.596;2022-07-23T10:34:52;2.05;;;0.88;;
55069;SDS011;40967;52.070;8.596;2022-07-23T10:37:32;1.05;;;0.80;;
55069;SDS011;40967;52.070;8.596;2022-07-23T10:42:42;1.50;;;0.88;;
55069;SDS011;40967;52.070;8.596;2022-07-23T10:47:54;1.10;;;0.70;;
55069;SDS011;40967;52.070;8.596;2022-07-23T10:50:21;1.10;;;0.70;;
55069;SDS011;40967;52.070;8.596;2022-07-23T10:57:58;0.87;;;0.60;;
55069;SDS011;40967;52.070;8.596;2022-07-23T11:00:34;0.73;;;0.50;;
55069;SDS011;40967;52.070;8.596;2022-07-23T11:03:01;3.73;;;1.10;;
55069;SDS011;40967;52.070;8.596;2022-07-23T11:05:44;0.87;;;0.60;;
55069;SDS011;40967;52.070;8.596;2022-07-23T11:08:15;0.80;;;0.60;;
55069;SDS011;40967;52.070;8.596;2022-07-23T11:10:46;1.33;;;0.80;;
55069;SDS011;40967;52.070;8.596;2022-07-23T11:24:08;1.27;;;0.60;;
55069;SDS011;40967;52.070;8.596;2022-07-23T11:31:53;0.90;;;0.57;;
55069;SDS011;40967;52.070;8.596;2022-07-23T11:34:30;0.40;;;0.40;;
55069;SDS011;40967;52.070;8.596;2022-07-23T11:37:07;3.88;;;1.35;;
55069;SDS011;40967;52.070;8.596;2022-07-23T11:39:37;1.83;;;0.98;;
55069;SDS011;40967;52.070;8.596;2022-07-23T11:42:04;1.25;;;0.80;;
55069;SDS011;40967;52.070;8.596;2022-07-23T11:44:32;1.25;;;0.70;;
55069;SDS011;40967;52.070;8.596;2022-07-23T11:49:25;1.08;;;0.60;;
55069;SDS011;40967;52.070;8.596;2022-07-23T11:52:04;0.90;;;0.52;;
55069;SDS011;40967;52.070;8.596;2022-07-23T11:54:36;1.77;;;0.73;;
55069;SDS011;40967;52.070;8.596;2022-07-23T11:57:11;1.58;;;0.70;;
55069;SDS011;40967;52.070;8.596;2022-07-23T11:59:37;1.00;;;0.60;;
55069;SDS011;40967;52.070;8.596;2022-07-23T12:02:05;1.92;;;0.85;;
55069;SDS011;40967;52.070;8.596;2022-07-23T12:04:44;1.20;;;0.77;;
55069;SDS011;40967;52.070;8.596;2022-07-23T12:07:24;2.00;;;0.80;;
55069;SDS011;40967;52.070;8.596;2022-07-23T12:09:53;1.17;;;0.60;;
55069;SDS011;40967;52.070;8.596;2022-07-23T12:12:19;0.90;;;0.60;;
55069;SDS011;40967;52.070;8.596;2022-07-23T12:14:48;1.80;;;0.80;;
55069;SDS011;40967;52.070;8.596;2022-07-23T12:17:22;1.05;;;0.60;;
55069;SDS011;40967;52.070;8.596;2022-07-23T12:19:53;1.63;;;0.63;;
55069;SDS011;40967;52.070;8.596;2022-07-23T12:22:20;1.50;;;0.75;;
55069;SDS011;40967;52.070;8.596;2022-07-23T12:24:55;1.13;;;0.57;;
55069;SDS011;40967;52.070;8.596;2022-07-23T12:27:31;2.03;;;0.90;;
55069;SDS011;40967;52.070;8.596;2022-07-23T12:29:56;1.52;;;0.80;;
55069;SDS011;40967;52.070;8.596;2022-07-23T12:32:23;1.40;;;0.77;;
55069;SDS011;40967;52.070;8.596;2022-07-23T12:35:03;1.70;;;0.90;;
55069;SDS011;40967;52.070;8.596;2022-07-23T12:37:33;1.65;;;0.70;;
55069;SDS011;40967;52.070;8.596;2022-07-23T12:42:55;0.40;;;0.40;;
55069;SDS011;40967;52.070;8.596;2022-07-23T12:45:23;2.50;;;0.80;;
55069;SDS011;40967;52.070;8.596;2022-07-23T12:47:50;2.13;;;0.82;;
55069;SDS011;40967;52.070;8.596;2022-07-23T12:50:33;1.48;;;0.50;;
55069;SDS011;40967;52.070;8.596;2022-07-23T12:55:33;0.40;;;0.40;;
55069;SDS011;40967;52.070;8.596;2022-07-23T12:58:04;0.32;;;0.30;;
55069;SDS011;40967;52.070;8.596;2022-07-23T13:00:49;0.85;;;0.40;;
55069;SDS011;40967;52.070;8.596;2022-07-23T13:05:49;0.85;;;0.40;;
55069;SDS011;40967;52.070;8.596;2022-07-23T13:08:14;0.70;;;0.40;;
55069;SDS011;40967;52.070;8.596;2022-07-23T13:10:40;0.50;;;0.30;;
55069;SDS011;40967;52.070;8.596;2022-07-23T13:13:11;0.30;;;0.30;;
55069;SDS011;40967;52.070;8.596;2022-07-23T13:15:37;1.30;;;0.40;;
55069;SDS011;40967;52.070;8.596;2022-07-23T13:18:02;1.67;;;0.70;;
55069;SDS011;40967;52.070;8.596;2022-07-23T13:20:28;1.27;;;0.55;;
55069;SDS011;40967;52.070;8.596;2022-07-23T13:22:53;0.50;;;0.40;;
55069;SDS011;40967;52.070;8.596;2022-07-23T13:25:18;1.60;;;0.60;;
55069;SDS011;40967;52.070;8.596;2022-07-23T13:27:44;1.13;;;0.57;;
55069;SDS011;40967;52.070;8.596;2022-07-23T13:30:09;1.20;;;0.73;;
55069;SDS011;40967;52.070;8.596;2022-07-23T13:32:35;2.22;;;0.90;;
55069;SDS011;40967;52.070;8.596;2022-07-23T13:35:02;0.90;;;0.60;;
55069;SDS011;40967;52.070;8.596;2022-07-23T13:37:28;1.10;;;0.53;;
55069;SDS011;40967;52.070;8.596;2022-07-23T13:39:53;0.80;;;0.50;;
55069;SDS011;40967;52.070;8.596;2022-07-23T13:42:19;1.37;;;0.80;;
55069;SDS011;40967;52.070;8.596;2022-07-23T13:44:44;0.97;;;0.70;;
55069;SDS011;40967;52.070;8.596;2022-07-23T13:47:09;1.25;;;0.73;;
55069;SDS011;40967;52.070;8.596;2022-07-23T13:49:35;2.17;;;0.80;;
55069;SDS011;40967;52.070;8.596;2022-07-23T13:52:01;0.90;;;0.50;;
55069;SDS011;40967;52.070;8.596;2022-07-23T13:54:28;0.73;;;0.50;;
55069;SDS011;40967;52.070;8.596;2022-07-23T13:56:53;0.50;;;0.30;;
55069;SDS011;40967;52.070;8.596;2022-07-23T13:59:18;1.20;;;0.40;;
55069;SDS011;40967;52.070;8.596;2022-07-23T14:01:44;0.53;;;0.40;;
55069;SDS011;40967;52.070;8.596;2022-07-23T14:04:09;0.47;;;0.33;;
55069;SDS011;40967;52.070;8.596;2022-07-23T14:06:35;0.30;;;0.30;;
55069;SDS011;40967;52.070;8.596;2022-07-23T14:09:00;0.40;;;0.30;;
55069;SDS011;40967;52.070;8.596;2022-07-23T14:11:25;0.50;;;0.40;;
55069;SDS011;40967;52.070;8.596;2022-07-23T14:13:51;0.33;;;0.20;;
55069;SDS011;40967;52.070;8.596;2022-07-23T14:16:16;1.07;;;0.50;;
55069;SDS011;40967;52.070;8.596;2022-07-23T14:18:42;1.10;;;0.60;;
55069;SDS011;40967;52.070;8.596;2022-07-23T14:21:07;1.00;;;0.57;;
55069;SDS011;40967;52.070;8.596;2022-07-23T14:23:32;0.63;;;0.40;;
55069;SDS011;40967;52.070;8.596;2022-07-23T14:25:58;0.40;;;0.30;;
55069;SDS011;40967;52.070;8.596;2022-07-23T14:28:24;0.63;;;0.30;;
55069;SDS011;40967;52.070;8.596;2022-07-23T14:30:49;0.70;;;0.40;;
55069;SDS011;40967;52.070;8.596;2022-07-23T14:33:15;0.30;;;0.30;;
55069;SDS011;40967;52.070;8.596;2022-07-23T14:35:41;0.80;;;0.43;;
55069;SDS011;40967;52.070;8.596;2022-07-23T14:38:07;0.60;;;0.40;;
55069;SDS011;40967;52.070;8.596;2022-07-23T14:40:32;1.27;;;0.57;;
55069;SDS011;40967;52.070;8.596;2022-07-23T14:42:58;0.77;;;0.50;;
55069;SDS011;40967;52.070;8.596;2022-07-23T14:45:24;0.50;;;0.40;;
55069;SDS011;40967;52.070;8.596;2022-07-23T14:47:49;0.38;;;0.38;;
55069;SDS011;40967;52.070;8.596;2022-07-23T14:50:15;1.40;;;0.60;;
55069;SDS011;40967;52.070;8.596;2022-07-23T14:52:40;1.08;;;0.60;;
55069;SDS011;40967;52.070;8.596;2022-07-23T14:55:06;1.43;;;0.40;;
55069;SDS011;40967;52.070;8.596;2022-07-23T14:57:32;0.73;;;0.35;;
55069;SDS011;40967;52.070;8.596;2022-07-23T14:59:57;0.63;;;0.40;;
55069;SDS011;40967;52.070;8.596;2022-07-23T15:02:22;0.57;;;0.30;;
55069;SDS011;40967;52.070;8.596;2022-07-23T15:04:50;0.57;;;0.38;;
55069;SDS011;40967;52.070;8.596;2022-07-23T15:07:15;1.03;;;0.60;;
55069;SDS011;40967;52.070;8.596;2022-07-23T15:09:40;0.60;;;0.40;;
55069;SDS011;40967;52.070;8.596;2022-07-23T15:12:06;0.70;;;0.40;;
55069;SDS011;40967;52.070;8.596;2022-07-23T15:14:31;1.20;;;0.50;;
55069;SDS011;40967;52.070;8.596;2022-07-23T15:16:57;0.70;;;0.40;;
55069;SDS011;40967;52.070;8.596;2022-07-23T15:19:22;0.85;;;0.50;;
55069;SDS011;40967;52.070;8.596;2022-07-23T15:21:47;1.00;;;0.40;;
55069;SDS011;40967;52.070;8.596;2022-07-23T15:24:13;0.80;;;0.40;;
55069;SDS011;40967;52.070;8.596;2022-07-23T15:26:38;0.80;;;0.40;;
55069;SDS011;40967;52.070;8.596;2022-07-23T15:29:04;0.80;;;0.40;;
55069;SDS011;40967;52.070;8.596;2022-07-23T15:31:31;0.40;;;0.40;;
55069;SDS011;40967;52.070;8.596;2022-07-23T15:33:56;0.57;;;0.47;;